sensor_id;sensor_type;location;lat;lon;timestamp;pressure;altitude;pressure_sealevel;temperature;humidity
19508;BME280;40157;42.566;27.526;2023-02-18T00:01:38;101673.00;;;9.10;49.93
19508;BME280;40157;42.566;27.526;2023-02-18T00:03:39;101672.56;;;9.22;50.10
19508;BME280;40157;42.566;27.526;2023-02-18T00:05:40;101632.63;;;9.03;50.70
19508;BME280;40157;42.566;27.526;2023-02-18T00:07:41;101665.25;;;9.13;50.89
19508;BME280;40157;42.566;27.526;2023-02-18T00:09:41;101656.41;;;9.10;50.91
19508;BME280;40157;42.566;27.526;2023-02-18T00:11:42;101622.53;;;8.90;50.31
19508;BME280;40157;42.566;27.526;2023-02-18T00:13:42;101642.16;;;9.01;50.41
19508;BME280;40157;42.566;27.526;2023-02-18T00:15:43;101619.81;;;8.87;50.35
19508;BME280;40157;42.566;27.526;2023-02-18T00:17:43;101658.06;;;9.07;49.97
19508;BME280;40157;42.566;27.526;2023-02-18T00:19:44;101638.47;;;8.96;49.54
19508;BME280;40157;42.566;27.526;2023-02-18T00:21:45;101652.94;;;9.11;48.95
19508;BME280;40157;42.566;27.526;2023-02-18T00:23:45;101642.03;;;8.98;48.28
19508;BME280;40157;42.566;27.526;2023-02-18T00:25:46;101664.09;;;9.05;48.13
19508;BME280;40157;42.566;27.526;2023-02-18T00:27:46;101641.16;;;8.98;47.64
19508;BME280;40157;42.566;27.526;2023-02-18T00:29:47;101657.00;;;9.02;47.67
19508;BME280;40157;42.566;27.526;2023-02-18T00:31:47;101616.97;;;8.81;47.48
19508;BME280;40157;42.566;27.526;2023-02-18T00:33:48;101647.38;;;9.01;47.47
19508;BME280;40157;42.566;27.526;2023-02-18T00:35:48;101639.41;;;8.98;46.98
19508;BME280;40157;42.566;27.526;2023-02-18T00:37:51;101603.84;;;8.79;46.91
19508;BME280;40157;42.566;27.526;2023-02-18T00:39:52;101585.13;;;8.68;47.11
19508;BME280;40157;42.566;27.526;2023-02-18T00:41:52;101608.78;;;8.72;47.40
19508;BME280;40157;42.566;27.526;2023-02-18T00:43:53;101621.06;;;8.74;47.38
19508;BME280;40157;42.566;27.526;2023-02-18T00:45:54;101609.28;;;8.61;47.66
19508;BME280;40157;42.566;27.526;2023-02-18T00:47:54;101600.25;;;8.53;47.66
19508;BME280;40157;42.566;27.526;2023-02-18T00:49:55;101619.34;;;8.52;47.48
19508;BME280;40157;42.566;27.526;2023-02-18T00:51:55;101585.38;;;8.29;47.56
19508;BME280;40157;42.566;27.526;2023-02-18T00:53:56;101606.88;;;8.45;47.62
19508;BME280;40157;42.566;27.526;2023-02-18T00:55:56;101613.13;;;8.48;47.48
19508;BME280;40157;42.566;27.526;2023-02-18T00:57:57;101613.88;;;8.46;47.72
19508;BME280;40157;42.566;27.526;2023-02-18T00:59:57;101574.78;;;8.26;48.21
19508;BME280;40157;42.566;27.526;2023-02-18T01:01:58;101580.13;;;8.29;48.46
19508;BME280;40157;42.566;27.526;2023-02-18T01:03:58;101582.28;;;8.40;48.98
19508;BME280;40157;42.566;27.526;2023-02-18T01:05:59;101589.25;;;8.41;48.76
19508;BME280;40157;42.566;27.526;2023-02-18T01:07:59;101514.56;;;8.01;48.75
19508;BME280;40157;42.566;27.526;2023-02-18T01:10:00;101582.16;;;8.37;48.88
19508;BME280;40157;42.566;27.526;2023-02-18T01:12:00;101587.78;;;8.25;49.24
19508;BME280;40157;42.566;27.526;2023-02-18T01:14:01;101588.91;;;8.31;49.20
19508;BME280;40157;42.566;27.526;2023-02-18T01:16:02;101588.84;;;8.30;49.49
19508;BME280;40157;42.566;27.526;2023-02-18T01:18:03;101575.53;;;8.24;50.90
19508;BME280;40157;42.566;27.526;2023-02-18T01:20:04;101582.31;;;8.19;51.37
19508;BME280;40157;42.566;27.526;2023-02-18T01:22:05;101526.53;;;7.95;51.38
19508;BME280;40157;42.566;27.526;2023-02-18T01:24:06;101564.91;;;8.19;51.78
19508;BME280;40157;42.566;27.526;2023-02-18T01:26:07;101522.25;;;7.96;52.37
19508;BME280;40157;42.566;27.526;2023-02-18T01:28:10;101567.84;;;8.27;52.93
19508;BME280;40157;42.566;27.526;2023-02-18T01:30:13;101567.47;;;8.18;55.74
19508;BME280;40157;42.566;27.526;2023-02-18T01:32:14;101544.00;;;7.96;57.70
19508;BME280;40157;42.566;27.526;2023-02-18T01:34:15;101562.81;;;8.10;58.70
19508;BME280;40157;42.566;27.526;2023-02-18T01:36:16;101544.88;;;7.97;61.19
19508;BME280;40157;42.566;27.526;2023-02-18T01:38:17;101529.75;;;7.88;62.75
19508;BME280;40157;42.566;27.526;2023-02-18T01:40:21;101527.84;;;7.84;64.10
19508;BME280;40157;42.566;27.526;2023-02-18T01:42:25;101546.56;;;7.95;64.75
19508;BME280;40157;42.566;27.526;2023-02-18T01:44:27;101545.53;;;7.91;65.10
19508;BME280;40157;42.566;27.526;2023-02-18T01:46:27;101529.50;;;7.82;65.77
19508;BME280;40157;42.566;27.526;2023-02-18T01:48:38;101529.63;;;7.85;65.82
19508;BME280;40157;42.566;27.526;2023-02-18T01:50:47;101544.63;;;7.91;66.32
19508;BME280;40157;42.566;27.526;2023-02-18T01:52:49;101511.03;;;7.77;66.35
19508;BME280;40157;42.566;27.526;2023-02-18T01:54:52;101536.50;;;7.83;66.89
19508;BME280;40157;42.566;27.526;2023-02-18T01:56:59;101547.31;;;7.92;66.86
19508;BME280;40157;42.566;27.526;2023-02-18T01:59:05;101531.28;;;7.83;66.67
19508;BME280;40157;42.566;27.526;2023-02-18T02:01:08;101543.00;;;7.93;67.34
19508;BME280;40157;42.566;27.526;2023-02-18T02:03:08;101555.34;;;7.97;67.63
19508;BME280;40157;42.566;27.526;2023-02-18T02:05:09;101539.31;;;7.88;68.06
19508;BME280;40157;42.566;27.526;2023-02-18T02:07:10;101528.81;;;7.86;68.51
19508;BME280;40157;42.566;27.526;2023-02-18T02:09:14;101544.94;;;7.99;68.81
19508;BME280;40157;42.566;27.526;2023-02-18T02:18:02;101527.75;;;8.04;68.55
19508;BME280;40157;42.566;27.526;2023-02-18T02:20:40;101526.94;;;8.05;68.39
19508;BME280;40157;42.566;27.526;2023-02-18T02:24:53;101544.59;;;8.12;68.02
19508;BME280;40157;42.566;27.526;2023-02-18T02:36:53;101535.56;;;8.04;66.54
19508;BME280;40157;42.566;27.526;2023-02-18T02:39:01;101542.94;;;7.91;66.60
19508;BME280;40157;42.566;27.526;2023-02-18T02:41:27;101544.00;;;7.96;65.92
19508;BME280;40157;42.566;27.526;2023-02-18T02:44:01;101541.47;;;7.77;65.23
19508;BME280;40157;42.566;27.526;2023-02-18T02:51:12;101546.22;;;7.65;64.42
19508;BME280;40157;42.566;27.526;2023-02-18T02:53:34;101544.09;;;7.56;64.84
19508;BME280;40157;42.566;27.526;2023-02-18T02:55:35;101547.59;;;7.56;64.77
19508;BME280;40157;42.566;27.526;2023-02-18T02:59:40;101555.81;;;7.45;65.26
19508;BME280;40157;42.566;27.526;2023-02-18T03:08:46;101543.81;;;7.29;65.58
19508;BME280;40157;42.566;27.526;2023-02-18T03:11:10;101547.31;;;7.29;65.97
19508;BME280;40157;42.566;27.526;2023-02-18T03:15:55;101537.38;;;7.20;66.39
19508;BME280;40157;42.566;27.526;2023-02-18T03:18:00;101530.41;;;7.19;66.46
19508;BME280;40157;42.566;27.526;2023-02-18T03:20:52;101547.81;;;7.20;66.73
19508;BME280;40157;42.566;27.526;2023-02-18T03:22:55;101540.84;;;7.19;66.42
19508;BME280;40157;42.566;27.526;2023-02-18T03:24:58;101544.25;;;7.18;66.35
19508;BME280;40157;42.566;27.526;2023-02-18T03:27:16;101533.69;;;7.15;66.86
19508;BME280;40157;42.566;27.526;2023-02-18T03:29:21;101537.66;;;7.27;66.69
19508;BME280;40157;42.566;27.526;2023-02-18T03:31:25;101527.34;;;7.30;66.54
19508;BME280;40157;42.566;27.526;2023-02-18T03:33:34;101532.44;;;7.27;66.56
19508;BME280;40157;42.566;27.526;2023-02-18T03:35:37;101532.31;;;7.23;66.58
19508;BME280;40157;42.566;27.526;2023-02-18T03:37:42;101522.00;;;7.27;66.50
19508;BME280;40157;42.566;27.526;2023-02-18T03:39:49;101518.44;;;7.25;66.19
19508;BME280;40157;42.566;27.526;2023-02-18T03:41:52;101528.25;;;7.30;66.43
19508;BME280;40157;42.566;27.526;2023-02-18T03:43:58;101532.56;;;7.30;66.31
19508;BME280;40157;42.566;27.526;2023-02-18T03:45:59;101544.41;;;7.43;66.20
19508;BME280;40157;42.566;27.526;2023-02-18T03:48:00;101517.81;;;7.30;66.35
19508;BME280;40157;42.566;27.526;2023-02-18T03:50:01;101515.78;;;7.23;66.56
19508;BME280;40157;42.566;27.526;2023-02-18T03:52:01;101490.81;;;7.09;66.25
19508;BME280;40157;42.566;27.526;2023-02-18T03:54:02;101525.69;;;7.32;66.26
19508;BME280;40157;42.566;27.526;2023-02-18T03:56:03;101539.09;;;7.41;66.22
19508;BME280;40157;42.566;27.526;2023-02-18T03:58:03;101524.91;;;7.34;66.23
19508;BME280;40157;42.566;27.526;2023-02-18T04:00:05;101543.38;;;7.39;66.27
19508;BME280;40157;42.566;27.526;2023-02-18T04:02:06;101508.97;;;7.27;65.71
19508;BME280;40157;42.566;27.526;2023-02-18T04:04:06;101544.31;;;7.41;65.58
19508;BME280;40157;42.566;27.526;2023-02-18T04:06:07;101502.53;;;7.18;65.63
19508;BME280;40157;42.566;27.526;2023-02-18T04:08:07;101512.22;;;7.42;65.67
19508;BME280;40157;42.566;27.526;2023-02-18T04:10:08;101475.88;;;7.26;65.44
19508;BME280;40157;42.566;27.526;2023-02-18T04:12:09;101532.63;;;7.52;65.43
19508;BME280;40157;42.566;27.526;2023-02-18T04:14:12;101530.59;;;7.45;65.27
19508;BME280;40157;42.566;27.526;2023-02-18T04:16:13;101545.19;;;7.40;65.35
19508;BME280;40157;42.566;27.526;2023-02-18T04:18:14;101495.38;;;7.14;65.50
19508;BME280;40157;42.566;27.526;2023-02-18T04:20:14;101547.25;;;7.28;66.09
19508;BME280;40157;42.566;27.526;2023-02-18T04:22:15;101503.63;;;7.04;66.82
19508;BME280;40157;42.566;27.526;2023-02-18T04:24:16;101518.81;;;7.13;67.30
19508;BME280;40157;42.566;27.526;2023-02-18T04:26:16;101515.88;;;7.05;67.34
19508;BME280;40157;42.566;27.526;2023-02-18T04:28:17;101538.03;;;7.15;67.69
19508;BME280;40157;42.566;27.526;2023-02-18T04:30:17;101537.19;;;7.16;67.49
19508;BME280;40157;42.566;27.526;2023-02-18T04:32:18;101516.69;;;7.04;67.80
19508;BME280;40157;42.566;27.526;2023-02-18T04:34:19;101505.31;;;7.02;67.79
19508;BME280;40157;42.566;27.526;2023-02-18T04:36:19;101519.56;;;7.10;67.67
19508;BME280;40157;42.566;27.526;2023-02-18T04:38:20;101444.56;;;6.64;67.83
19508;BME280;40157;42.566;27.526;2023-02-18T04:40:20;101507.84;;;7.00;68.07
19508;BME280;40157;42.566;27.526;2023-02-18T04:42:21;101507.16;;;7.04;67.69
19508;BME280;40157;42.566;27.526;2023-02-18T04:44:22;101516.22;;;6.93;68.39
19508;BME280;40157;42.566;27.526;2023-02-18T04:46:22;101510.06;;;6.91;68.44
19508;BME280;40157;42.566;27.526;2023-02-18T04:48:23;101449.53;;;6.58;68.78
19508;BME280;40157;42.566;27.526;2023-02-18T04:50:23;101510.09;;;6.93;69.33
19508;BME280;40157;42.566;27.526;2023-02-18T04:52:24;101521.97;;;7.06;69.62
19508;BME280;40157;42.566;27.526;2023-02-18T04:54:24;101516.00;;;7.08;69.84
19508;BME280;40157;42.566;27.526;2023-02-18T04:56:25;101467.78;;;6.98;69.68
19508;BME280;40157;42.566;27.526;2023-02-18T04:58:25;101507.88;;;7.21;69.82
19508;BME280;40157;42.566;27.526;2023-02-18T05:00:26;101471.91;;;7.14;70.03
19508;BME280;40157;42.566;27.526;2023-02-18T05:02:27;101441.84;;;7.01;69.79
19508;BME280;40157;42.566;27.526;2023-02-18T05:04:28;101516.78;;;7.27;70.22
19508;BME280;40157;42.566;27.526;2023-02-18T05:06:28;101458.50;;;7.05;70.22
19508;BME280;40157;42.566;27.526;2023-02-18T05:08:29;101478.25;;;7.19;70.04
19508;BME280;40157;42.566;27.526;2023-02-18T05:10:29;101512.59;;;7.30;70.35
19508;BME280;40157;42.566;27.526;2023-02-18T05:12:30;101471.91;;;7.14;70.19
19508;BME280;40157;42.566;27.526;2023-02-18T05:14:30;101501.88;;;7.24;70.31
19508;BME280;40157;42.566;27.526;2023-02-18T05:16:31;101488.28;;;7.10;70.08
19508;BME280;40157;42.566;27.526;2023-02-18T05:18:31;101501.72;;;7.19;70.06
19508;BME280;40157;42.566;27.526;2023-02-18T05:20:32;101487.56;;;7.14;70.04
19508;BME280;40157;42.566;27.526;2023-02-18T05:22:33;101522.28;;;7.33;70.30
19508;BME280;40157;42.566;27.526;2023-02-18T05:24:33;101497.69;;;7.28;69.83
19508;BME280;40157;42.566;27.526;2023-02-18T05:26:34;101491.38;;;7.22;70.04
19508;BME280;40157;42.566;27.526;2023-02-18T05:28:34;101486.16;;;7.22;70.03
19508;BME280;40157;42.566;27.526;2023-02-18T05:30:35;101484.84;;;7.11;70.04
19508;BME280;40157;42.566;27.526;2023-02-18T05:32:35;101498.97;;;7.16;69.96
19508;BME280;40157;42.566;27.526;2023-02-18T05:34:36;101494.63;;;7.17;69.79
19508;BME280;40157;42.566;27.526;2023-02-18T05:36:51;101506.22;;;7.23;69.86
19508;BME280;40157;42.566;27.526;2023-02-18T05:38:51;101439.47;;;6.87;70.02
19508;BME280;40157;42.566;27.526;2023-02-18T05:40:52;101472.69;;;7.12;70.04
19508;BME280;40157;42.566;27.526;2023-02-18T05:42:52;101489.09;;;7.09;69.98
19508;BME280;40157;42.566;27.526;2023-02-18T05:44:53;101474.53;;;6.93;70.07
19508;BME280;40157;42.566;27.526;2023-02-18T05:46:53;101456.34;;;6.95;70.07
19508;BME280;40157;42.566;27.526;2023-02-18T05:48:54;101490.31;;;7.17;70.06
19508;BME280;40157;42.566;27.526;2023-02-18T05:50:54;101458.44;;;7.03;69.99
19508;BME280;40157;42.566;27.526;2023-02-18T05:52:55;101508.63;;;7.19;70.20
19508;BME280;40157;42.566;27.526;2023-02-18T05:54:55;101493.13;;;7.22;70.12
19508;BME280;40157;42.566;27.526;2023-02-18T05:56:56;101502.91;;;7.28;69.87
19508;BME280;40157;42.566;27.526;2023-02-18T05:58:56;101478.13;;;7.16;70.04
19508;BME280;40157;42.566;27.526;2023-02-18T06:00:57;101456.03;;;7.08;70.17
19508;BME280;40157;42.566;27.526;2023-02-18T06:02:57;101441.34;;;7.10;69.91
19508;BME280;40157;42.566;27.526;2023-02-18T06:04:58;101506.03;;;7.40;69.75
19508;BME280;40157;42.566;27.526;2023-02-18T06:06:58;101501.09;;;7.46;71.37
19508;BME280;40157;42.566;27.526;2023-02-18T06:08:59;101470.34;;;7.39;72.10
19508;BME280;40157;42.566;27.526;2023-02-18T06:10:59;101500.84;;;7.63;71.47
19508;BME280;40157;42.566;27.526;2023-02-18T06:13:00;101445.25;;;7.43;71.07
19508;BME280;40157;42.566;27.526;2023-02-18T06:15:01;101416.91;;;7.29;70.46
19508;BME280;40157;42.566;27.526;2023-02-18T06:17:02;101491.06;;;7.78;69.95
19508;BME280;40157;42.566;27.526;2023-02-18T06:19:02;101447.19;;;7.69;70.06
19508;BME280;40157;42.566;27.526;2023-02-18T06:21:03;101487.19;;;7.91;69.12
19508;BME280;40157;42.566;27.526;2023-02-18T06:23:03;101459.75;;;7.78;68.67
19508;BME280;40157;42.566;27.526;2023-02-18T06:25:04;101485.50;;;7.91;69.07
19508;BME280;40157;42.566;27.526;2023-02-18T06:27:06;101513.03;;;8.06;68.88
19508;BME280;40157;42.566;27.526;2023-02-18T06:29:06;101511.47;;;8.11;68.56
19508;BME280;40157;42.566;27.526;2023-02-18T06:31:06;101499.16;;;8.07;68.11
19508;BME280;40157;42.566;27.526;2023-02-18T06:33:07;101455.28;;;7.98;67.83
19508;BME280;40157;42.566;27.526;2023-02-18T06:35:10;101453.75;;;8.03;67.42
19508;BME280;40157;42.566;27.526;2023-02-18T06:37:11;101496.63;;;8.32;67.33
19508;BME280;40157;42.566;27.526;2023-02-18T06:39:11;101498.28;;;8.30;67.28
19508;BME280;40157;42.566;27.526;2023-02-18T06:41:13;101490.47;;;8.30;67.58
19508;BME280;40157;42.566;27.526;2023-02-18T06:43:14;101493.31;;;8.37;67.45
19508;BME280;40157;42.566;27.526;2023-02-18T06:45:15;101477.41;;;8.30;67.34
19508;BME280;40157;42.566;27.526;2023-02-18T06:47:15;101495.34;;;8.44;67.61
19508;BME280;40157;42.566;27.526;2023-02-18T06:49:16;101493.66;;;8.46;67.83
19508;BME280;40157;42.566;27.526;2023-02-18T06:51:16;101408.47;;;8.03;68.00
19508;BME280;40157;42.566;27.526;2023-02-18T06:53:18;101446.94;;;8.31;67.87
19508;BME280;40157;42.566;27.526;2023-02-18T06:55:19;101455.38;;;8.46;68.03
19508;BME280;40157;42.566;27.526;2023-02-18T06:57:19;101501.88;;;8.55;67.26
19508;BME280;40157;42.566;27.526;2023-02-18T06:59:20;101480.13;;;8.56;66.33
19508;BME280;40157;42.566;27.526;2023-02-18T07:01:20;101460.56;;;8.45;66.20
19508;BME280;40157;42.566;27.526;2023-02-18T07:03:20;101498.63;;;8.62;65.82
19508;BME280;40157;42.566;27.526;2023-02-18T07:05:21;101459.34;;;8.37;65.65
19508;BME280;40157;42.566;27.526;2023-02-18T07:07:21;101474.28;;;8.41;65.75
19508;BME280;40157;42.566;27.526;2023-02-18T07:09:22;101499.59;;;8.64;65.87
19508;BME280;40157;42.566;27.526;2023-02-18T07:11:22;101466.00;;;8.51;66.14
19508;BME280;40157;42.566;27.526;2023-02-18T07:13:23;101475.78;;;8.57;66.48
19508;BME280;40157;42.566;27.526;2023-02-18T07:15:23;101433.28;;;8.38;68.75
19508;BME280;40157;42.566;27.526;2023-02-18T07:17:29;101480.91;;;8.78;68.22
19508;BME280;40157;42.566;27.526;2023-02-18T07:19:29;101453.25;;;8.60;67.97
19508;BME280;40157;42.566;27.526;2023-02-18T07:21:30;101496.66;;;8.79;67.74
19508;BME280;40157;42.566;27.526;2023-02-18T07:23:30;101498.25;;;8.76;68.03
19508;BME280;40157;42.566;27.526;2023-02-18T07:25:31;101453.03;;;8.54;67.87
19508;BME280;40157;42.566;27.526;2023-02-18T07:27:31;101481.75;;;8.77;68.09
19508;BME280;40157;42.566;27.526;2023-02-18T07:29:32;101469.59;;;8.79;68.45
19508;BME280;40157;42.566;27.526;2023-02-18T07:31:32;101477.44;;;8.79;68.16
19508;BME280;40157;42.566;27.526;2023-02-18T07:33:33;101455.31;;;8.69;68.14
19508;BME280;40157;42.566;27.526;2023-02-18T07:35:33;101475.88;;;8.84;67.89
19508;BME280;40157;42.566;27.526;2023-02-18T07:37:34;101420.03;;;8.56;66.79
19508;BME280;40157;42.566;27.526;2023-02-18T07:39:41;101434.84;;;8.57;66.92
19508;BME280;40157;42.566;27.526;2023-02-18T07:41:42;101463.22;;;8.70;66.99
19508;BME280;40157;42.566;27.526;2023-02-18T07:43:43;101392.47;;;8.42;67.01
19508;BME280;40157;42.566;27.526;2023-02-18T07:45:44;101442.53;;;8.77;67.22
19508;BME280;40157;42.566;27.526;2023-02-18T07:47:44;101448.69;;;8.79;67.47
19508;BME280;40157;42.566;27.526;2023-02-18T07:49:45;101459.59;;;8.91;68.15
19508;BME280;40157;42.566;27.526;2023-02-18T07:51:47;101410.94;;;8.70;68.28
19508;BME280;40157;42.566;27.526;2023-02-18T07:53:47;101420.25;;;8.88;68.31
19508;BME280;40157;42.566;27.526;2023-02-18T07:55:48;101451.34;;;9.04;68.33
19508;BME280;40157;42.566;27.526;2023-02-18T07:57:48;101440.00;;;9.05;68.62
19508;BME280;40157;42.566;27.526;2023-02-18T08:00:00;101431.44;;;9.10;69.22
19508;BME280;40157;42.566;27.526;2023-02-18T08:02:00;101446.44;;;9.15;69.18
19508;BME280;40157;42.566;27.526;2023-02-18T08:04:01;101453.09;;;9.31;69.35
19508;BME280;40157;42.566;27.526;2023-02-18T08:06:02;101437.28;;;9.28;69.14
19508;BME280;40157;42.566;27.526;2023-02-18T08:08:03;101455.72;;;9.31;69.18
19508;BME280;40157;42.566;27.526;2023-02-18T08:10:04;101440.25;;;9.39;68.52
19508;BME280;40157;42.566;27.526;2023-02-18T08:12:05;101401.81;;;9.11;68.55
19508;BME280;40157;42.566;27.526;2023-02-18T08:14:06;101439.38;;;9.38;67.98
19508;BME280;40157;42.566;27.526;2023-02-18T08:16:08;101398.22;;;9.07;67.61
19508;BME280;40157;42.566;27.526;2023-02-18T08:18:15;101466.13;;;9.57;67.15
19508;BME280;40157;42.566;27.526;2023-02-18T08:20:15;101438.03;;;9.51;66.58
19508;BME280;40157;42.566;27.526;2023-02-18T08:22:16;101454.13;;;9.63;66.74
19508;BME280;40157;42.566;27.526;2023-02-18T08:24:16;101453.19;;;9.61;66.53
19508;BME280;40157;42.566;27.526;2023-02-18T08:26:17;101448.16;;;9.68;66.65
19508;BME280;40157;42.566;27.526;2023-02-18T08:28:20;101444.06;;;9.77;66.88
19508;BME280;40157;42.566;27.526;2023-02-18T08:30:20;101422.97;;;9.71;66.83
19508;BME280;40157;42.566;27.526;2023-02-18T08:32:21;101446.06;;;9.85;66.38
19508;BME280;40157;42.566;27.526;2023-02-18T08:34:21;101364.41;;;9.40;66.43
19508;BME280;40157;42.566;27.526;2023-02-18T08:36:22;101377.03;;;9.54;66.21
19508;BME280;40157;42.566;27.526;2023-02-18T08:38:23;101450.94;;;10.01;66.27
19508;BME280;40157;42.566;27.526;2023-02-18T08:40:24;101452.47;;;9.94;66.03
19508;BME280;40157;42.566;27.526;2023-02-18T08:42:24;101444.16;;;10.08;65.58
19508;BME280;40157;42.566;27.526;2023-02-18T08:44:26;101454.63;;;10.08;65.87
19508;BME280;40157;42.566;27.526;2023-02-18T08:46:26;101426.59;;;10.05;65.46
19508;BME280;40157;42.566;27.526;2023-02-18T08:48:27;101437.41;;;10.16;65.33
19508;BME280;40157;42.566;27.526;2023-02-18T08:50:29;101441.38;;;10.03;65.03
19508;BME280;40157;42.566;27.526;2023-02-18T08:52:29;101465.34;;;10.17;64.94
19508;BME280;40157;42.566;27.526;2023-02-18T08:54:30;101436.38;;;10.11;64.79
19508;BME280;40157;42.566;27.526;2023-02-18T08:56:30;101444.59;;;10.23;64.96
19508;BME280;40157;42.566;27.526;2023-02-18T08:58:32;101440.06;;;10.17;64.67
19508;BME280;40157;42.566;27.526;2023-02-18T09:00:37;101459.50;;;10.26;64.45
19508;BME280;40157;42.566;27.526;2023-02-18T09:02:39;101461.28;;;10.27;64.69
19508;BME280;40157;42.566;27.526;2023-02-18T09:04:39;101431.25;;;10.15;64.92
19508;BME280;40157;42.566;27.526;2023-02-18T09:06:40;101445.56;;;10.27;64.71
19508;BME280;40157;42.566;27.526;2023-02-18T09:08:40;101454.53;;;10.33;64.70
19508;BME280;40157;42.566;27.526;2023-02-18T09:10:41;101444.00;;;10.32;64.46
19508;BME280;40157;42.566;27.526;2023-02-18T09:12:41;101409.41;;;10.15;64.19
19508;BME280;40157;42.566;27.526;2023-02-18T09:14:42;101459.28;;;10.47;64.12
19508;BME280;40157;42.566;27.526;2023-02-18T09:16:42;101440.03;;;10.46;63.79
19508;BME280;40157;42.566;27.526;2023-02-18T09:18:43;101407.56;;;10.41;63.78
19508;BME280;40157;42.566;27.526;2023-02-18T09:20:44;101445.69;;;10.62;63.41
19508;BME280;40157;42.566;27.526;2023-02-18T09:22:44;101375.28;;;10.44;63.32
19508;BME280;40157;42.566;27.526;2023-02-18T09:24:45;101433.94;;;10.79;63.34
19508;BME280;40157;42.566;27.526;2023-02-18T09:26:46;101403.22;;;10.75;63.33
19508;BME280;40157;42.566;27.526;2023-02-18T09:28:46;101407.84;;;10.85;62.56
19508;BME280;40157;42.566;27.526;2023-02-18T09:30:48;101411.22;;;10.80;62.42
19508;BME280;40157;42.566;27.526;2023-02-18T09:32:48;101402.06;;;10.99;62.26
19508;BME280;40157;42.566;27.526;2023-02-18T09:34:49;101401.53;;;11.12;61.77
19508;BME280;40157;42.566;27.526;2023-02-18T09:36:49;101400.88;;;11.19;62.17
19508;BME280;40157;42.566;27.526;2023-02-18T09:38:50;101370.91;;;11.11;60.89
19508;BME280;40157;42.566;27.526;2023-02-18T09:40:52;101406.56;;;11.38;60.79
19508;BME280;40157;42.566;27.526;2023-02-18T09:42:54;101369.50;;;11.25;60.19
19508;BME280;40157;42.566;27.526;2023-02-18T09:44:59;101394.63;;;11.52;59.93
19508;BME280;40157;42.566;27.526;2023-02-18T09:47:06;101387.06;;;11.66;59.98
19508;BME280;40157;42.566;27.526;2023-02-18T09:49:16;101388.09;;;11.73;59.35
19508;BME280;40157;42.566;27.526;2023-02-18T09:51:18;101384.81;;;11.83;58.99
19508;BME280;40157;42.566;27.526;2023-02-18T09:53:21;101355.66;;;11.72;58.94
19508;BME280;40157;42.566;27.526;2023-02-18T09:55:27;101410.63;;;12.01;57.55
19508;BME280;40157;42.566;27.526;2023-02-18T09:57:37;101369.66;;;12.11;57.35
19508;BME280;40157;42.566;27.526;2023-02-18T09:59:40;101359.16;;;12.11;57.02
19508;BME280;40157;42.566;27.526;2023-02-18T10:01:42;101360.31;;;12.27;56.87
19508;BME280;40157;42.566;27.526;2023-02-18T10:03:44;101382.66;;;12.49;56.03
19508;BME280;40157;42.566;27.526;2023-02-18T10:05:56;101340.53;;;12.46;55.88
19508;BME280;40157;42.566;27.526;2023-02-18T10:08:04;101357.63;;;12.69;55.16
19508;BME280;40157;42.566;27.526;2023-02-18T10:12:25;101351.84;;;12.92;54.36
19508;BME280;40157;42.566;27.526;2023-02-18T10:14:25;101358.28;;;13.09;54.02
19508;BME280;40157;42.566;27.526;2023-02-18T10:16:26;101364.63;;;13.24;50.50
19508;BME280;40157;42.566;27.526;2023-02-18T10:18:30;101361.44;;;13.42;49.50
19508;BME280;40157;42.566;27.526;2023-02-18T10:20:32;101345.75;;;13.49;49.35
19508;BME280;40157;42.566;27.526;2023-02-18T10:22:33;101331.88;;;13.63;48.65
19508;BME280;40157;42.566;27.526;2023-02-18T10:24:37;101315.22;;;13.65;48.51
19508;BME280;40157;42.566;27.526;2023-02-18T10:26:38;101312.59;;;13.64;47.71
19508;BME280;40157;42.566;27.526;2023-02-18T10:28:39;101343.72;;;13.96;47.59
19508;BME280;40157;42.566;27.526;2023-02-18T10:30:42;101284.63;;;13.78;47.39
19508;BME280;40157;42.566;27.526;2023-02-18T10:32:45;101329.84;;;14.12;47.48
19508;BME280;40157;42.566;27.526;2023-02-18T10:35:35;101332.59;;;14.21;47.33
19508;BME280;40157;42.566;27.526;2023-02-18T10:50:46;101267.81;;;14.51;45.60
19508;BME280;40157;42.566;27.526;2023-02-18T10:52:48;101309.38;;;14.75;45.00
19508;BME280;40157;42.566;27.526;2023-02-18T10:55:07;101302.38;;;14.76;44.94
19508;BME280;40157;42.566;27.526;2023-02-18T10:57:18;101303.28;;;14.81;44.42
19508;BME280;40157;42.566;27.526;2023-02-18T10:59:30;101286.56;;;14.85;44.70
19508;BME280;40157;42.566;27.526;2023-02-18T11:01:31;101293.69;;;14.92;45.16
19508;BME280;40157;42.566;27.526;2023-02-18T11:03:44;101265.44;;;14.82;44.39
19508;BME280;40157;42.566;27.526;2023-02-18T11:05:47;101259.19;;;14.68;43.77
19508;BME280;40157;42.566;27.526;2023-02-18T11:07:51;101280.47;;;14.89;44.08
19508;BME280;40157;42.566;27.526;2023-02-18T11:09:57;101273.41;;;14.88;43.83
19508;BME280;40157;42.566;27.526;2023-02-18T11:12:23;101268.13;;;14.88;44.10
19508;BME280;40157;42.566;27.526;2023-02-18T11:14:36;101275.22;;;14.98;44.86
19508;BME280;40157;42.566;27.526;2023-02-18T11:16:40;101269.09;;;15.01;45.02
19508;BME280;40157;42.566;27.526;2023-02-18T11:18:43;101269.97;;;15.02;45.37
19508;BME280;40157;42.566;27.526;2023-02-18T11:20:54;101277.00;;;14.99;45.65
19508;BME280;40157;42.566;27.526;2023-02-18T11:23:14;101259.41;;;14.95;45.71
19508;BME280;40157;42.566;27.526;2023-02-18T11:25:21;101268.19;;;14.97;44.88
19508;BME280;40157;42.566;27.526;2023-02-18T11:27:45;101241.75;;;14.91;45.11
19508;BME280;40157;42.566;27.526;2023-02-18T11:29:54;101267.31;;;14.94;45.20
19508;BME280;40157;42.566;27.526;2023-02-18T11:31:55;101243.41;;;14.74;42.62